Time;durP1;ratioP1;P1;durP2;ratioP2;P2;SDS_P1;SDS_P2;PMS_P1;PMS_P2;Temp;Humidity;BMP_temperature;BMP_pressure;BME280_temperature;BME280_humidity;BME280_pressure;Samples;Min_cycle;Max_cycle;Signal;HPM_P1;HPM_P2
2022/03/20 00:00:44;;;;;;;81.88;19.17;;;;;;;;;;5114591;28;20199;-72
2022/03/20 00:03:12;;;;;;;79.30;18.67;;;;;;;;;;5114296;28;20238;-73
2022/03/20 00:05:42;;;;;;;84.72;20.58;;;;;;;;;;5114538;28;20290;-73
2022/03/20 00:08:10;;;;;;;80.70;19.63;;;;;;;;;;5113437;28;20232;-73
2022/03/20 00:10:37;;;;;;;82.15;18.45;;;;;;;;;;5114113;28;20303;-72
2022/03/20 00:13:07;;;;;;;81.80;17.15;;;;;;;;;;5113996;28;20298;-72
2022/03/20 00:15:34;;;;;;;88.35;18.13;;;;;;;;;;5114207;28;20705;-72
2022/03/20 00:18:01;;;;;;;80.38;19.40;;;;;;;;;;5113532;28;20250;-72
2022/03/20 00:20:28;;;;;;;79.38;19.20;;;;;;;;;;5113896;28;20210;-73
2022/03/20 00:22:57;;;;;;;85.85;20.55;;;;;;;;;;5114117;28;20294;-73
2022/03/20 00:25:24;;;;;;;85.78;20.30;;;;;;;;;;5113838;28;20235;-72
2022/03/20 00:27:52;;;;;;;85.00;18.42;;;;;;;;;;5112836;28;20228;-74
2022/03/20 00:30:19;;;;;;;78.38;17.92;;;;;;;;;;5113955;28;20218;-72
2022/03/20 00:32:46;;;;;;;84.20;20.60;;;;;;;;;;5113792;28;20582;-73
2022/03/20 00:35:13;;;;;;;87.50;20.10;;;;;;;;;;5113545;28;20210;-72
2022/03/20 00:37:40;;;;;;;83.53;19.77;;;;;;;;;;5112997;28;20306;-72
2022/03/20 00:40:09;;;;;;;81.50;19.58;;;;;;;;;;5113815;28;20200;-72
2022/03/20 00:42:38;;;;;;;81.40;18.40;;;;;;;;;;5113577;28;20744;-72
2022/03/20 00:45:05;;;;;;;81.13;18.92;;;;;;;;;;5113550;28;20253;-72
2022/03/20 00:47:32;;;;;;;84.07;19.92;;;;;;;;;;5112470;28;20277;-72
2022/03/20 00:49:59;;;;;;;80.00;18.23;;;;;;;;;;5113569;28;20208;-72
2022/03/20 00:52:27;;;;;;;87.88;19.00;;;;;;;;;;5113489;28;20231;-73
2022/03/20 00:54:54;;;;;;;84.00;19.17;;;;;;;;;;5113423;28;20207;-72
2022/03/20 00:57:22;;;;;;;81.78;19.33;;;;;;;;;;5112544;28;20310;-72
2022/03/20 00:59:49;;;;;;;84.18;18.27;;;;;;;;;;5113185;28;20294;-72
2022/03/20 01:02:16;;;;;;;84.07;19.08;;;;;;;;;;5113005;28;20294;-72
2022/03/20 01:04:44;;;;;;;80.65;17.73;;;;;;;;;;5113340;28;20211;-72
2022/03/20 01:07:11;;;;;;;76.82;17.55;;;;;;;;;;5112376;28;20296;-73
2022/03/20 01:09:38;;;;;;;85.65;17.33;;;;;;;;;;5113344;28;20235;-72
2022/03/20 01:12:06;;;;;;;82.97;18.55;;;;;;;;;;5113108;28;20214;-72
2022/03/20 01:14:35;;;;;;;81.82;16.83;;;;;;;;;;5112779;28;20294;-72
2022/03/20 01:17:03;;;;;;;78.50;16.02;;;;;;;;;;5112715;28;20220;-72
2022/03/20 01:19:31;;;;;;;80.43;17.02;;;;;;;;;;5112487;28;20204;-72
2022/03/20 01:21:59;;;;;;;83.18;17.42;;;;;;;;;;5113008;28;20218;-72
2022/03/20 01:24:28;;;;;;;83.03;19.45;;;;;;;;;;5112616;27;20659;-72
2022/03/20 01:26:55;;;;;;;76.38;15.68;;;;;;;;;;5112406;28;20280;-72
2022/03/20 01:29:22;;;;;;;78.47;16.50;;;;;;;;;;5112006;28;20668;-72
2022/03/20 01:31:51;;;;;;;80.15;16.50;;;;;;;;;;5112898;28;20200;-73
2022/03/20 01:34:18;;;;;;;81.30;18.90;;;;;;;;;;5112879;28;20203;-72
2022/03/20 01:36:46;;;;;;;81.43;19.48;;;;;;;;;;5112353;28;20874;-72
2022/03/20 01:39:13;;;;;;;81.93;17.90;;;;;;;;;;5111072;28;20637;-72
2022/03/20 01:41:40;;;;;;;75.47;15.73;;;;;;;;;;5112378;28;20210;-72
2022/03/20 01:44:07;;;;;;;77.00;15.27;;;;;;;;;;5112512;28;20210;-72
2022/03/20 01:46:34;;;;;;;82.50;19.38;;;;;;;;;;5112487;27;20315;-72
2022/03/20 01:49:03;;;;;;;84.50;19.77;;;;;;;;;;5111694;28;20235;-72
2022/03/20 01:54:15;;;;;;;83.32;20.63;;;;;;;;;;5112264;28;20468;-72
2022/03/20 01:56:44;;;;;;;89.35;19.67;;;;;;;;;;5112400;28;20223;-73
2022/03/20 01:59:11;;;;;;;92.55;22.38;;;;;;;;;;5112030;28;20632;-72
2022/03/20 02:01:38;;;;;;;85.13;20.98;;;;;;;;;;5112397;28;20207;-72
2022/03/20 02:04:07;;;;;;;85.15;21.13;;;;;;;;;;5112172;28;20298;-72
2022/03/20 02:06:34;;;;;;;85.70;19.95;;;;;;;;;;5112063;28;20484;-72
2022/03/20 02:09:01;;;;;;;87.38;19.17;;;;;;;;;;5111242;28;20207;-72
2022/03/20 02:11:28;;;;;;;86.65;19.35;;;;;;;;;;5112188;28;20299;-72
2022/03/20 02:13:56;;;;;;;81.30;17.30;;;;;;;;;;5111883;28;20207;-72
2022/03/20 02:16:23;;;;;;;81.55;19.08;;;;;;;;;;5111887;28;20332;-72
2022/03/20 02:18:50;;;;;;;85.70;20.90;;;;;;;;;;5111472;28;20206;-72
2022/03/20 02:21:36;;;;;;;90.13;21.17;;;;;;;;;;5111974;28;20211;-72
2022/03/20 02:24:03;;;;;;;84.72;19.92;;;;;;;;;;5112107;28;20294;-73
2022/03/20 02:26:30;;;;;;;81.70;19.38;;;;;;;;;;5112012;28;20223;-72
2022/03/20 02:28:58;;;;;;;79.18;17.98;;;;;;;;;;5108123;28;21039;-72
2022/03/20 02:31:25;;;;;;;81.80;18.15;;;;;;;;;;5112231;28;20218;-73
2022/03/20 02:33:52;;;;;;;78.03;16.25;;;;;;;;;;5112016;28;20204;-72
2022/03/20 02:36:21;;;;;;;80.70;18.70;;;;;;;;;;5111965;28;20322;-73
2022/03/20 02:38:49;;;;;;;79.00;17.58;;;;;;;;;;5111426;28;20199;-72
2022/03/20 02:41:16;;;;;;;82.13;17.98;;;;;;;;;;5112015;28;20739;-72
2022/03/20 02:43:49;;;;;;;78.00;17.92;;;;;;;;;;5111840;28;20283;-72
2022/03/20 02:46:16;;;;;;;80.68;17.25;;;;;;;;;;5111718;28;20235;-72
2022/03/20 02:48:45;;;;;;;81.82;18.05;;;;;;;;;;5111342;28;20227;-72
2022/03/20 02:51:13;;;;;;;76.55;16.85;;;;;;;;;;5115626;28;20688;-72
2022/03/20 02:53:41;;;;;;;78.68;18.20;;;;;;;;;;5115471;28;20671;-72
2022/03/20 02:56:10;;;;;;;83.32;19.33;;;;;;;;;;5115417;28;20230;-72
2022/03/20 02:58:38;;;;;;;80.82;18.40;;;;;;;;;;5115265;28;20219;-73
2022/03/20 03:01:06;;;;;;;81.30;18.35;;;;;;;;;;5115705;28;20230;-72
2022/03/20 03:03:33;;;;;;;83.28;18.17;;;;;;;;;;5115430;28;20736;-72
2022/03/20 03:06:06;;;;;;;80.25;16.77;;;;;;;;;;5115388;28;20223;-72
2022/03/20 03:11:19;;;;;;;80.35;17.48;;;;;;;;;;5115300;28;20662;-73
2022/03/20 03:13:47;;;;;;;84.75;17.92;;;;;;;;;;5115430;28;20290;-72
2022/03/20 03:16:15;;;;;;;81.35;19.58;;;;;;;;;;5115258;28;20224;-72
2022/03/20 03:18:43;;;;;;;81.30;17.25;;;;;;;;;;5114370;28;20234;-72
2022/03/20 03:21:11;;;;;;;78.95;15.73;;;;;;;;;;5115057;28;20293;-73
2022/03/20 03:23:38;;;;;;;83.95;17.55;;;;;;;;;;5115138;28;20294;-73
2022/03/20 03:26:06;;;;;;;79.75;17.90;;;;;;;;;;5115269;28;20224;-72
2022/03/20 03:28:35;;;;;;;80.22;18.48;;;;;;;;;;5114248;28;20219;-72
2022/03/20 03:31:03;;;;;;;82.47;18.80;;;;;;;;;;5114789;28;20671;-72
2022/03/20 03:33:30;;;;;;;83.45;18.40;;;;;;;;;;5114802;28;20203;-72
2022/03/20 03:35:57;;;;;;;79.45;17.02;;;;;;;;;;5115029;27;20238;-72
2022/03/20 03:38:25;;;;;;;81.70;18.40;;;;;;;;;;5114282;28;20195;-72
2022/03/20 03:40:52;;;;;;;81.63;17.42;;;;;;;;;;5114798;28;20203;-72
2022/03/20 03:43:20;;;;;;;82.40;17.48;;;;;;;;;;5114803;28;20204;-72
2022/03/20 03:45:49;;;;;;;80.35;18.08;;;;;;;;;;5114482;28;20573;-72
2022/03/20 03:48:17;;;;;;;79.07;17.17;;;;;;;;;;5113986;28;20231;-72
2022/03/20 03:50:45;;;;;;;77.78;17.17;;;;;;;;;;5114701;28;20211;-72
2022/03/20 03:53:12;;;;;;;78.22;17.15;;;;;;;;;;5114631;28;20298;-72
2022/03/20 03:55:41;;;;;;;79.13;18.05;;;;;;;;;;5114513;28;20604;-72
2022/03/20 03:58:08;;;;;;;82.00;17.98;;;;;;;;;;5113782;28;20295;-72
2022/03/20 04:00:35;;;;;;;81.35;18.17;;;;;;;;;;5113653;28;20237;-73
2022/03/20 04:03:04;;;;;;;80.60;18.55;;;;;;;;;;5114506;28;20204;-72
2022/03/20 04:05:31;;;;;;;77.97;17.83;;;;;;;;;;5114450;28;20299;-72
2022/03/20 04:07:58;;;;;;;81.63;16.67;;;;;;;;;;5113693;28;20233;-72
2022/03/20 04:10:26;;;;;;;83.32;18.73;;;;;;;;;;5114148;28;20298;-74
2022/03/20 04:12:53;;;;;;;75.93;16.30;;;;;;;;;;5114067;28;20208;-72
2022/03/20 04:15:24;;;;;;;79.70;16.20;;;;;;;;;;5114537;28;20207;-73
2022/03/20 04:17:51;;;;;;;75.88;16.55;;;;;;;;;;5113576;28;20645;-72
2022/03/20 04:20:20;;;;;;;76.43;16.50;;;;;;;;;;5114169;28;20294;-72
2022/03/20 04:25:29;;;;;;;79.57;17.25;;;;;;;;;;5113613;28;20660;-72
2022/03/20 04:27:56;;;;;;;84.40;17.60;;;;;;;;;;5113263;28;20278;-73
2022/03/20 04:30:25;;;;;;;78.15;17.00;;;;;;;;;;5113814;28;20239;-72
2022/03/20 04:32:53;;;;;;;73.95;15.68;;;;;;;;;;5113768;28;20610;-73
2022/03/20 04:35:22;;;;;;;77.55;16.33;;;;;;;;;;5113852;28;20584;-73
2022/03/20 04:37:49;;;;;;;77.50;16.77;;;;;;;;;;5112883;28;20257;-72
2022/03/20 04:40:17;;;;;;;76.55;16.40;;;;;;;;;;5113825;27;20242;-72
2022/03/20 04:42:44;;;;;;;85.18;18.83;;;;;;;;;;5113344;28;20239;-72
2022/03/20 04:45:12;;;;;;;78.22;17.23;;;;;;;;;;5113466;28;20206;-72
2022/03/20 04:58:43;;;;;;;79.35;18.50;;;;;;;;;;5112447;28;20203;-72
2022/03/20 05:01:10;;;;;;;78.43;17.02;;;;;;;;;;5113475;28;20214;-72
2022/03/20 05:03:37;;;;;;;82.63;19.52;;;;;;;;;;5113016;28;20235;-72
2022/03/20 05:06:06;;;;;;;78.97;16.67;;;;;;;;;;5113062;28;20306;-72
2022/03/20 05:08:35;;;;;;;80.53;17.23;;;;;;;;;;5112453;28;20223;-72
2022/03/20 05:13:47;;;;;;;84.68;18.05;;;;;;;;;;5112633;28;20264;-72
2022/03/20 05:16:14;;;;;;;76.90;16.75;;;;;;;;;;5113065;28;20315;-73
2022/03/20 05:18:42;;;;;;;80.63;17.20;;;;;;;;;;5112146;28;20572;-72
2022/03/20 05:21:10;;;;;;;84.53;18.50;;;;;;;;;;5112856;28;20291;-72
2022/03/20 05:23:39;;;;;;;82.80;18.33;;;;;;;;;;5112721;28;20214;-73
2022/03/20 05:26:06;;;;;;;92.97;18.65;;;;;;;;;;5112808;27;20255;-73
2022/03/20 05:28:33;;;;;;;83.47;18.65;;;;;;;;;;5112142;28;20223;-72
2022/03/20 05:31:00;;;;;;;79.38;17.25;;;;;;;;;;5112772;28;20222;-72
2022/03/20 05:33:29;;;;;;;78.03;17.63;;;;;;;;;;5112705;28;20239;-72
2022/03/20 05:35:56;;;;;;;83.45;18.73;;;;;;;;;;5112472;28;20277;-73
2022/03/20 05:38:25;;;;;;;84.30;18.30;;;;;;;;;;5111705;28;20199;-72
2022/03/20 05:41:43;;;;;;;82.82;17.73;;;;;;;;;;5112899;28;20199;-73
2022/03/20 05:43:40;;;;;;;81.35;18.30;;;;;;;;;;5112391;28;20257;-72
2022/03/20 05:46:08;;;;;;;78.85;17.48;;;;;;;;;;5112356;28;20249;-72
2022/03/20 05:48:37;;;;;;;83.55;18.52;;;;;;;;;;5111543;28;20227;-72
2022/03/20 05:51:05;;;;;;;85.05;19.90;;;;;;;;;;5112435;28;20690;-73
2022/03/20 05:53:33;;;;;;;88.50;18.70;;;;;;;;;;5112455;28;20217;-72
2022/03/20 05:58:47;;;;;;;84.85;19.15;;;;;;;;;;5085568;28;20231;-72
2022/03/20 06:01:15;;;;;;;82.75;18.67;;;;;;;;;;5112250;28;20214;-72
2022/03/20 06:03:42;;;;;;;83.18;19.45;;;;;;;;;;5112392;28;20294;-72
2022/03/20 06:06:10;;;;;;;86.78;19.23;;;;;;;;;;5112563;28;20574;-72
2022/03/20 06:08:39;;;;;;;83.78;20.00;;;;;;;;;;5111504;28;20287;-73
2022/03/20 06:11:06;;;;;;;83.13;18.65;;;;;;;;;;5112124;28;20701;-72
2022/03/20 06:13:38;;;;;;;81.10;17.33;;;;;;;;;;5111973;28;20200;-72
2022/03/20 06:16:08;;;;;;;79.15;18.23;;;;;;;;;;5112137;28;20255;-72
2022/03/20 06:18:35;;;;;;;87.68;20.27;;;;;;;;;;5111498;28;20257;-71
2022/03/20 06:21:06;;;;;;;84.55;19.13;;;;;;;;;;5112178;28;20211;-72
2022/03/20 06:23:33;;;;;;;83.90;18.73;;;;;;;;;;5112069;28;20212;-72
2022/03/20 06:26:01;;;;;;;81.97;17.80;;;;;;;;;;5116042;28;20266;-72
2022/03/20 06:28:29;;;;;;;80.60;18.27;;;;;;;;;;5115506;28;20222;-72
2022/03/20 06:30:56;;;;;;;81.50;18.55;;;;;;;;;;5116304;28;20259;-72
2022/03/20 06:33:25;;;;;;;80.68;17.75;;;;;;;;;;5115989;28;20447;-72
2022/03/20 06:35:52;;;;;;;81.53;20.08;;;;;;;;;;5116009;28;20578;-72
2022/03/20 06:38:19;;;;;;;84.45;19.02;;;;;;;;;;5115291;28;20204;-74
2022/03/20 06:40:47;;;;;;;86.97;18.92;;;;;;;;;;5115814;28;20234;-72
2022/03/20 06:43:15;;;;;;;81.25;18.73;;;;;;;;;;5115682;28;20206;-72
2022/03/20 06:45:42;;;;;;;80.70;19.30;;;;;;;;;;5116175;28;20250;-72
2022/03/20 06:48:10;;;;;;;84.93;19.15;;;;;;;;;;5115278;28;20204;-72
2022/03/20 06:50:37;;;;;;;84.82;18.88;;;;;;;;;;5115759;28;20659;-72
2022/03/20 06:53:04;;;;;;;81.82;19.55;;;;;;;;;;5115604;28;20290;-72
2022/03/20 06:55:32;;;;;;;80.63;18.10;;;;;;;;;;5116036;28;20289;-72
2022/03/20 06:57:59;;;;;;;82.55;19.05;;;;;;;;;;5115275;28;20231;-72
2022/03/20 07:00:29;;;;;;;85.03;18.88;;;;;;;;;;5115741;28;20210;-72
2022/03/20 07:02:56;;;;;;;79.85;17.20;;;;;;;;;;5115599;28;20601;-72
2022/03/20 07:05:24;;;;;;;82.18;18.60;;;;;;;;;;5115529;28;20242;-72
2022/03/20 07:07:51;;;;;;;83.18;19.42;;;;;;;;;;5114646;28;20225;-72
2022/03/20 07:10:21;;;;;;;81.90;18.30;;;;;;;;;;5115242;28;20219;-72
2022/03/20 07:12:50;;;;;;;83.43;18.38;;;;;;;;;;5115204;28;20211;-74
2022/03/20 07:15:17;;;;;;;80.25;18.83;;;;;;;;;;5115422;28;20298;-73
2022/03/20 07:17:47;;;;;;;82.55;18.58;;;;;;;;;;5114695;28;20280;-72
2022/03/20 07:20:16;;;;;;;79.93;18.17;;;;;;;;;;5115119;28;20282;-73
2022/03/20 07:22:43;;;;;;;84.15;17.83;;;;;;;;;;5115277;28;20208;-73
2022/03/20 07:30:49;;;;;;;85.60;18.08;;;;;;;;;;5078010;28;20790;-72
2022/03/20 07:33:17;;;;;;;81.20;19.00;;;;;;;;;;5115240;28;20214;-72
2022/03/20 07:35:44;;;;;;;81.40;17.60;;;;;;;;;;5114766;28;20299;-73
2022/03/20 07:38:11;;;;;;;80.68;17.77;;;;;;;;;;5114311;28;20295;-72
2022/03/20 07:40:39;;;;;;;80.95;18.70;;;;;;;;;;5114859;27;20210;-72
2022/03/20 07:43:06;;;;;;;84.80;20.70;;;;;;;;;;5114642;28;20204;-73
2022/03/20 07:45:34;;;;;;;83.57;18.42;;;;;;;;;;5114534;28;20206;-73
2022/03/20 07:48:02;;;;;;;82.93;17.25;;;;;;;;;;5114165;28;20239;-74
2022/03/20 07:50:31;;;;;;;80.75;19.23;;;;;;;;;;5114791;28;20232;-72
2022/03/20 07:52:59;;;;;;;83.10;17.92;;;;;;;;;;5114528;27;20760;-73
2022/03/20 07:55:27;;;;;;;85.63;18.42;;;;;;;;;;5114600;28;20244;-73
2022/03/20 07:57:54;;;;;;;84.43;20.20;;;;;;;;;;5113954;28;20224;-73
2022/03/20 08:00:22;;;;;;;81.87;18.40;;;;;;;;;;5114482;27;20252;-73
2022/03/20 08:02:49;;;;;;;81.60;17.50;;;;;;;;;;5114429;28;20947;-73
2022/03/20 08:05:17;;;;;;;82.70;18.60;;;;;;;;;;5114907;28;20633;-72
2022/03/20 08:07:45;;;;;;;82.60;18.60;;;;;;;;;;5112825;28;21028;-73
2022/03/20 08:10:13;;;;;;;82.20;17.57;;;;;;;;;;5113941;28;20488;-73
2022/03/20 08:12:41;;;;;;;83.93;20.23;;;;;;;;;;5114289;28;20451;-73
2022/03/20 08:15:10;;;;;;;79.17;18.83;;;;;;;;;;5114194;28;20446;-73
2022/03/20 08:17:43;;;;;;;82.53;18.83;;;;;;;;;;5113524;28;20505;-73
2022/03/20 08:20:11;;;;;;;83.17;19.30;;;;;;;;;;5114355;28;20447;-72
2022/03/20 08:22:39;;;;;;;82.40;18.90;;;;;;;;;;5114193;28;20449;-73
2022/03/20 08:25:10;;;;;;;79.47;18.40;;;;;;;;;;5113908;28;20531;-73
2022/03/20 08:27:43;;;;;;;79.40;18.03;;;;;;;;;;5113405;28;20472;-73
2022/03/20 08:30:12;;;;;;;80.70;18.83;;;;;;;;;;5113759;28;20990;-72
2022/03/20 08:32:39;;;;;;;77.67;16.20;;;;;;;;;;5113781;28;20805;-73
2022/03/20 08:35:07;;;;;;;77.47;16.90;;;;;;;;;;5113811;28;20807;-72
2022/03/20 08:37:35;;;;;;;81.97;18.57;;;;;;;;;;5112839;28;20465;-72
2022/03/20 08:40:02;;;;;;;82.27;20.43;;;;;;;;;;5113998;28;20569;-72
2022/03/20 08:42:31;;;;;;;83.33;18.20;;;;;;;;;;5113701;28;20456;-73
2022/03/20 08:44:58;;;;;;;87.20;18.90;;;;;;;;;;5113681;28;20444;-71
2022/03/20 08:47:27;;;;;;;85.50;18.77;;;;;;;;;;5112387;28;20842;-71
2022/03/20 08:49:54;;;;;;;82.97;19.47;;;;;;;;;;5113353;28;20473;-71
2022/03/20 08:52:21;;;;;;;81.80;19.00;;;;;;;;;;5113604;28;20478;-72
2022/03/20 08:54:48;;;;;;;80.97;18.10;;;;;;;;;;5113611;28;20880;-71
2022/03/20 08:57:16;;;;;;;81.20;18.50;;;;;;;;;;5112658;28;21051;-71
2022/03/20 08:59:44;;;;;;;79.10;17.93;;;;;;;;;;5113366;28;20787;-71
2022/03/20 09:02:12;;;;;;;79.60;18.00;;;;;;;;;;5113249;28;20473;-72
2022/03/20 09:04:39;;;;;;;85.03;18.57;;;;;;;;;;5113129;28;20441;-72
2022/03/20 09:07:06;;;;;;;80.40;18.37;;;;;;;;;;5113158;27;20468;-72
2022/03/20 09:09:33;;;;;;;81.40;18.80;;;;;;;;;;5112992;28;20578;-71
2022/03/20 09:12:01;;;;;;;80.37;18.47;;;;;;;;;;5113382;28;20885;-71
2022/03/20 09:14:28;;;;;;;81.33;18.37;;;;;;;;;;5112998;28;20885;-71
2022/03/20 09:19:41;;;;;;;78.97;17.50;;;;;;;;;;5113312;28;20448;-71
2022/03/20 09:22:11;;;;;;;75.27;17.00;;;;;;;;;;5112986;28;20881;-71
2022/03/20 09:24:39;;;;;;;79.13;18.20;;;;;;;;;;5112830;28;20528;-71
2022/03/20 09:27:06;;;;;;;78.77;18.03;;;;;;;;;;5112711;28;20561;-71
2022/03/20 09:29:33;;;;;;;82.50;18.13;;;;;;;;;;5112157;28;20485;-72
2022/03/20 09:32:02;;;;;;;79.20;18.47;;;;;;;;;;5112974;28;20890;-72
2022/03/20 09:34:32;;;;;;;79.50;18.47;;;;;;;;;;5112618;28;20971;-72
2022/03/20 09:36:59;;;;;;;79.80;18.40;;;;;;;;;;5112835;28;20473;-71
2022/03/20 09:39:26;;;;;;;78.17;18.13;;;;;;;;;;5111991;28;20484;-73
2022/03/20 09:41:56;;;;;;;81.87;18.87;;;;;;;;;;5112777;28;20453;-72
2022/03/20 09:44:23;;;;;;;80.43;18.77;;;;;;;;;;5112451;28;20537;-72
2022/03/20 09:46:50;;;;;;;83.93;20.23;;;;;;;;;;5112654;28;20462;-71
2022/03/20 09:49:20;;;;;;;79.27;18.60;;;;;;;;;;5111927;28;20936;-72
2022/03/20 09:51:47;;;;;;;81.10;19.53;;;;;;;;;;5112505;28;20457;-71
2022/03/20 09:54:14;;;;;;;80.00;17.53;;;;;;;;;;5112917;28;20534;-72
2022/03/20 09:56:42;;;;;;;83.33;18.33;;;;;;;;;;5112379;28;20564;-72
2022/03/20 09:59:09;;;;;;;75.17;16.73;;;;;;;;;;5111368;28;20442;-72
2022/03/20 10:01:36;;;;;;;79.00;17.27;;;;;;;;;;5112852;28;20452;-71
2022/03/20 10:04:07;;;;;;;78.40;18.70;;;;;;;;;;5112616;28;20445;-72
2022/03/20 10:06:38;;;;;;;74.53;16.53;;;;;;;;;;5112244;28;20465;-72
2022/03/20 10:09:05;;;;;;;79.80;17.30;;;;;;;;;;5111945;28;20758;-73
2022/03/20 10:11:33;;;;;;;74.57;16.50;;;;;;;;;;5112480;28;20968;-72
2022/03/20 10:14:10;;;;;;;75.30;16.80;;;;;;;;;;5112354;28;21013;-72
2022/03/20 10:16:38;;;;;;;80.33;18.73;;;;;;;;;;5112263;28;20476;-72
2022/03/20 10:19:21;;;;;;;81.30;17.07;;;;;;;;;;5111916;28;20551;-72
2022/03/20 10:21:49;;;;;;;73.97;18.17;;;;;;;;;;5112574;28;20505;-72
2022/03/20 10:24:17;;;;;;;77.40;16.30;;;;;;;;;;5112755;28;20446;-72
2022/03/20 10:26:44;;;;;;;76.57;17.03;;;;;;;;;;5112351;28;20464;-72
2022/03/20 10:29:17;;;;;;;78.00;18.20;;;;;;;;;;5111961;28;20462;-72
2022/03/20 10:31:50;;;;;;;75.03;17.30;;;;;;;;;;5112345;28;20462;-72
2022/03/20 10:34:18;;;;;;;79.80;18.70;;;;;;;;;;5112440;28;20456;-72
2022/03/20 10:36:45;;;;;;;75.90;17.60;;;;;;;;;;5112336;28;20837;-72
2022/03/20 10:39:16;;;;;;;76.93;17.97;;;;;;;;;;5111904;28;20459;-72
2022/03/20 10:41:45;;;;;;;81.07;19.03;;;;;;;;;;5112306;28;20540;-72
2022/03/20 10:44:14;;;;;;;81.40;18.10;;;;;;;;;;5111977;28;20947;-72
2022/03/20 10:46:41;;;;;;;76.37;17.33;;;;;;;;;;5112073;28;20462;-72
2022/03/20 10:49:09;;;;;;;80.33;19.13;;;;;;;;;;5111751;28;20443;-73
2022/03/20 10:51:41;;;;;;;76.77;16.20;;;;;;;;;;5112040;28;20569;-74
2022/03/20 10:54:10;;;;;;;77.43;18.40;;;;;;;;;;5112148;28;20546;-72
2022/03/20 10:56:40;;;;;;;77.80;17.53;;;;;;;;;;5112128;28;20552;-72
2022/03/20 10:59:13;;;;;;;77.90;16.73;;;;;;;;;;5111971;28;20444;-73
2022/03/20 11:01:41;;;;;;;80.20;17.97;;;;;;;;;;5112108;28;20453;-73
2022/03/20 11:04:09;;;;;;;72.27;15.60;;;;;;;;;;5111872;28;20446;-71
2022/03/20 11:06:36;;;;;;;76.20;16.63;;;;;;;;;;5111935;28;20558;-71
2022/03/20 11:09:04;;;;;;;77.70;18.13;;;;;;;;;;5111271;28;20439;-73
2022/03/20 11:11:32;;;;;;;75.17;17.10;;;;;;;;;;5115027;28;20518;-74
2022/03/20 11:14:01;;;;;;;75.80;18.43;;;;;;;;;;5115461;28;20546;-74
2022/03/20 11:16:28;;;;;;;75.37;17.27;;;;;;;;;;5115522;28;20464;-71
2022/03/20 11:18:58;;;;;;;76.27;18.40;;;;;;;;;;5114801;28;20540;-71
2022/03/20 11:21:26;;;;;;;73.67;17.10;;;;;;;;;;5115515;28;20448;-71
2022/03/20 11:23:53;;;;;;;75.50;18.70;;;;;;;;;;5115212;28;20450;-71
2022/03/20 11:26:21;;;;;;;74.23;16.40;;;;;;;;;;5115115;27;20548;-71
2022/03/20 11:28:52;;;;;;;75.17;17.87;;;;;;;;;;5114396;28;21104;-71
2022/03/20 11:31:20;;;;;;;73.10;16.80;;;;;;;;;;5115265;28;20491;-71
2022/03/20 11:33:49;;;;;;;73.10;16.90;;;;;;;;;;5114990;28;20510;-73
2022/03/20 11:36:16;;;;;;;76.80;18.87;;;;;;;;;;5115092;28;20509;-72
2022/03/20 11:38:43;;;;;;;76.80;18.60;;;;;;;;;;5114589;28;20454;-71
2022/03/20 11:41:12;;;;;;;76.30;18.13;;;;;;;;;;5115107;28;20447;-71
2022/03/20 11:43:39;;;;;;;73.70;16.67;;;;;;;;;;5114811;28;20451;-72
2022/03/20 11:46:19;;;;;;;75.03;19.40;;;;;;;;;;5114888;27;20841;-71
2022/03/20 11:49:07;;;;;;;86.70;17.47;;;;;;;;;;5114198;28;20960;-73
2022/03/20 11:51:49;;;;;;;72.80;17.23;;;;;;;;;;5114529;28;20481;-72
2022/03/20 11:54:16;;;;;;;77.90;17.60;;;;;;;;;;5114581;28;20492;-72
2022/03/20 11:56:44;;;;;;;77.97;16.83;;;;;;;;;;5114575;27;20973;-72
2022/03/20 11:59:36;;;;;;;71.90;15.03;;;;;;;;;;5114027;28;20448;-72
2022/03/20 12:02:03;;;;;;;72.53;15.17;;;;;;;;;;5114407;28;20448;-72
2022/03/20 12:04:42;;;;;;;74.00;14.63;;;;;;;;;;5114324;28;20949;-73
2022/03/20 12:07:15;;;;;;;69.60;13.07;;;;;;;;;;5114093;28;20475;-72
2022/03/20 12:10:06;;;;;;;69.83;13.80;;;;;;;;;;5114113;28;20441;-72
2022/03/20 12:12:40;;;;;;;65.37;11.60;;;;;;;;;;5098956;28;20545;-72
2022/03/20 12:15:11;;;;;;;71.63;13.37;;;;;;;;;;5114298;28;20436;-72
2022/03/20 12:17:56;;;;;;;68.00;12.50;;;;;;;;;;5113636;28;20891;-72
2022/03/20 12:20:38;;;;;;;69.40;13.77;;;;;;;;;;5114471;28;20517;-71
2022/03/20 12:23:23;;;;;;;72.07;15.93;;;;;;;;;;5112941;28;20528;-73
2022/03/20 12:25:52;;;;;;;71.30;13.20;;;;;;;;;;5113726;28;20480;-73
2022/03/20 12:28:31;;;;;;;68.47;12.37;;;;;;;;;;5113515;28;20529;-74
2022/03/20 12:30:58;;;;;;;71.10;13.57;;;;;;;;;;5113740;28;20518;-73
2022/03/20 12:33:26;;;;;;;72.67;13.87;;;;;;;;;;5113908;28;20945;-73
2022/03/20 12:35:54;;;;;;;72.07;13.13;;;;;;;;;;5113987;28;20544;-73
2022/03/20 12:38:40;;;;;;;71.27;13.50;;;;;;;;;;5113197;28;20537;-73
2022/03/20 12:41:09;;;;;;;70.10;13.00;;;;;;;;;;5113807;28;20445;-73
2022/03/20 12:43:37;;;;;;;70.07;12.80;;;;;;;;;;5113971;28;20533;-72
2022/03/20 12:46:04;;;;;;;70.90;13.93;;;;;;;;;;5113656;28;20552;-73
2022/03/20 12:48:33;;;;;;;73.93;14.93;;;;;;;;;;5112981;28;20480;-74
2022/03/20 12:51:02;;;;;;;71.20;14.17;;;;;;;;;;5113511;28;20481;-72
2022/03/20 12:53:40;;;;;;;70.90;14.97;;;;;;;;;;5113504;28;20453;-73
2022/03/20 12:56:14;;;;;;;74.47;14.63;;;;;;;;;;5113667;28;20477;-73
2022/03/20 12:58:43;;;;;;;71.90;14.00;;;;;;;;;;5113399;28;20456;-72
2022/03/20 13:01:11;;;;;;;68.60;12.80;;;;;;;;;;5113302;28;20453;-72
2022/03/20 13:03:38;;;;;;;71.40;11.93;;;;;;;;;;5113403;28;20946;-72
2022/03/20 13:06:06;;;;;;;67.90;12.40;;;;;;;;;;5113275;28;20732;-72
2022/03/20 13:08:34;;;;;;;68.07;12.33;;;;;;;;;;5112592;28;20445;-72
2022/03/20 13:11:05;;;;;;;69.73;12.53;;;;;;;;;;5113329;28;20489;-72
2022/03/20 13:13:33;;;;;;;72.53;12.10;;;;;;;;;;5113191;28;20544;-72
2022/03/20 13:16:02;;;;;;;70.47;13.80;;;;;;;;;;5113253;28;20469;-72
2022/03/20 13:18:31;;;;;;;71.70;13.37;;;;;;;;;;5112673;28;20446;-72
2022/03/20 13:20:58;;;;;;;71.60;13.73;;;;;;;;;;5113587;28;20442;-71
2022/03/20 13:23:26;;;;;;;68.80;13.13;;;;;;;;;;5112941;27;20453;-72
2022/03/20 13:25:55;;;;;;;72.43;12.90;;;;;;;;;;5113003;28;20470;-72
2022/03/20 13:28:25;;;;;;;71.27;12.57;;;;;;;;;;5112479;28;20484;-72
2022/03/20 13:30:52;;;;;;;70.80;12.93;;;;;;;;;;5112994;28;20882;-72
2022/03/20 13:33:29;;;;;;;69.50;13.50;;;;;;;;;;5113227;28;20484;-72
2022/03/20 13:35:56;;;;;;;68.47;12.93;;;;;;;;;;5112936;28;20559;-71
2022/03/20 13:38:24;;;;;;;70.70;13.60;;;;;;;;;;5112338;28;20442;-71
2022/03/20 13:40:51;;;;;;;71.97;13.10;;;;;;;;;;5112860;28;20532;-72
2022/03/20 13:43:21;;;;;;;74.83;14.00;;;;;;;;;;5112729;28;20449;-71
2022/03/20 13:45:48;;;;;;;70.43;13.27;;;;;;;;;;5112437;28;20454;-72
2022/03/20 13:48:17;;;;;;;70.63;12.17;;;;;;;;;;5112403;28;20453;-72
2022/03/20 13:50:48;;;;;;;71.07;14.43;;;;;;;;;;5112705;28;20857;-71
2022/03/20 13:53:16;;;;;;;70.67;12.83;;;;;;;;;;5112870;28;20800;-72
2022/03/20 13:55:43;;;;;;;71.13;13.87;;;;;;;;;;5112387;28;20967;-71
2022/03/20 13:58:10;;;;;;;72.00;13.90;;;;;;;;;;5111902;28;20449;-72
2022/03/20 14:00:38;;;;;;;71.17;13.63;;;;;;;;;;5112628;28;20452;-72
2022/03/20 14:03:07;;;;;;;69.97;12.83;;;;;;;;;;5112525;28;20473;-72
2022/03/20 14:05:34;;;;;;;72.23;13.03;;;;;;;;;;5112566;28;20873;-72
2022/03/20 14:08:04;;;;;;;69.90;13.00;;;;;;;;;;5111828;28;20447;-72
2022/03/20 14:10:32;;;;;;;72.27;14.27;;;;;;;;;;5112501;28;20967;-72
2022/03/20 14:13:14;;;;;;;69.93;13.40;;;;;;;;;;5112379;28;20488;-72
2022/03/20 14:15:41;;;;;;;74.20;14.63;;;;;;;;;;5112540;28;20520;-71
2022/03/20 14:18:12;;;;;;;74.80;15.20;;;;;;;;;;5111928;28;20456;-72
2022/03/20 14:20:39;;;;;;;73.13;14.87;;;;;;;;;;5112382;28;20434;-71
2022/03/20 14:23:12;;;;;;;71.63;14.00;;;;;;;;;;5112259;28;20441;-73
2022/03/20 14:25:42;;;;;;;72.47;14.23;;;;;;;;;;5112405;28;20446;-71
2022/03/20 14:28:10;;;;;;;71.50;14.70;;;;;;;;;;5111791;28;20550;-71
2022/03/20 14:41:46;;;;;;;71.10;14.53;;;;;;;;;;5112306;28;20498;-73
2022/03/20 14:44:14;;;;;;;77.70;14.47;;;;;;;;;;5112177;28;20441;-72
2022/03/20 14:46:42;;;;;;;73.60;13.80;;;;;;;;;;5115486;28;20811;-71
2022/03/20 14:49:09;;;;;;;71.90;13.43;;;;;;;;;;5115404;28;20961;-71
2022/03/20 14:51:37;;;;;;;68.57;12.80;;;;;;;;;;5115851;28;21013;-72
2022/03/20 14:54:06;;;;;;;72.40;14.13;;;;;;;;;;5116065;28;20488;-71
2022/03/20 14:56:33;;;;;;;70.77;13.30;;;;;;;;;;5115791;28;20497;-73
2022/03/20 14:59:01;;;;;;;73.63;13.93;;;;;;;;;;5115668;28;20540;-72
2022/03/20 15:01:29;;;;;;;71.80;13.50;;;;;;;;;;5116237;28;20519;-72
2022/03/20 15:03:56;;;;;;;72.07;14.07;;;;;;;;;;5115742;27;20939;-72
2022/03/20 15:06:24;;;;;;;74.63;14.73;;;;;;;;;;5115955;28;20590;-72
2022/03/20 15:11:38;;;;;;;71.13;14.37;;;;;;;;;;5115591;28;20495;-71